Time;durP1;ratioP1;P1;durP2;ratioP2;P2;SDS_P1;SDS_P2;PMS_P1;PMS_P2;Temp;Humidity;BMP_temperature;BMP_pressure;BME280_temperature;BME280_humidity;BME280_pressure;Samples;Min_cycle;Max_cycle;Signal;HPM_P1;HPM_P2
2022/10/09 00:02:13;;;;;;;12.20;5.20;;;11.90;99.90;;;;;;4362826;28;658111;-66
2022/10/09 00:05:00;;;;;;;12.73;4.67;;;11.80;99.90;;;;;;4349597;28;657543;-66
2022/10/09 00:07:47;;;;;;;6.67;2.23;;;11.80;99.90;;;;;;4366228;28;659612;-64
2022/10/09 00:10:35;;;;;;;13.83;3.70;;;11.80;99.90;;;;;;4371274;28;656858;-65
2022/10/09 00:13:23;;;;;;;13.50;2.93;;;11.70;99.90;;;;;;4353522;28;657462;-65
2022/10/09 00:16:12;;;;;;;10.63;2.83;;;11.70;99.90;;;;;;4351925;28;657711;-65
2022/10/09 00:18:59;;;;;;;5.57;2.67;;;11.70;99.90;;;;;;4368225;28;657992;-65
2022/10/09 00:21:46;;;;;;;6.47;2.50;;;11.60;99.90;;;;;;4352616;28;656244;-64
2022/10/09 00:24:33;;;;;;;12.20;3.27;;;11.50;99.90;;;;;;4370012;28;659935;-65
2022/10/09 00:27:21;;;;;;;6.83;3.33;;;11.50;99.90;;;;;;4351659;28;658332;-66
2022/10/09 00:30:11;;;;;;;10.70;3.37;;;11.50;99.90;;;;;;4372304;28;656840;-65
2022/10/09 00:32:58;;;;;;;10.30;2.90;;;11.40;99.90;;;;;;4345394;28;658974;-66
2022/10/09 00:35:45;;;;;;;8.23;2.83;;;11.30;99.90;;;;;;4348047;28;657990;-67
2022/10/09 00:38:32;;;;;;;9.83;3.23;;;11.20;99.90;;;;;;4374179;28;656428;-65
2022/10/09 00:41:22;;;;;;;14.17;3.70;;;11.20;99.90;;;;;;4366656;28;657945;-66
2022/10/09 00:44:42;;;;;;;12.63;3.47;;;11.10;99.90;;;;;;4366028;28;657192;-65
2022/10/09 00:47:33;;;;;;;9.17;3.60;;;11.00;99.90;;;;;;4371079;28;657604;-66
2022/10/09 00:50:22;;;;;;;9.53;3.13;;;11.00;99.90;;;;;;4349573;28;657362;-66
2022/10/09 00:53:10;;;;;;;16.80;4.33;;;10.90;99.90;;;;;;4371246;28;656547;-65
2022/10/09 00:55:57;;;;;;;10.80;4.23;;;11.00;99.90;;;;;;4349010;28;659085;-66
2022/10/09 00:58:44;;;;;;;11.30;3.50;;;10.90;99.90;;;;;;4364036;28;657867;-65
2022/10/09 01:01:31;;;;;;;12.83;4.03;;;10.90;99.90;;;;;;4351724;28;657954;-65
2022/10/09 01:04:20;;;;;;;8.87;3.83;;;10.90;99.90;;;;;;4370861;28;657436;-65
2022/10/09 01:07:15;;;;;;;9.30;3.87;;;10.90;99.90;;;;;;4353183;28;657749;-65
2022/10/09 01:10:04;;;;;;;12.27;4.50;;;10.90;99.90;;;;;;4328419;28;657149;-67
2022/10/09 01:12:54;;;;;;;8.63;3.67;;;10.80;99.90;;;;;;4351848;28;657763;-65
2022/10/09 01:15:44;;;;;;;10.90;4.10;;;10.80;99.90;;;;;;4354937;28;658305;-65
2022/10/09 01:18:34;;;;;;;10.10;3.30;;;10.90;99.90;;;;;;4353902;28;658108;-66
2022/10/09 01:21:24;;;;;;;7.53;3.57;;;10.90;99.90;;;;;;4350441;28;658239;-65
2022/10/09 01:24:19;;;;;;;5.23;2.80;;;10.80;99.90;;;;;;4350177;28;658209;-65
2022/10/09 01:27:10;;;;;;;9.90;3.67;;;10.80;99.90;;;;;;4321913;28;657393;-65
2022/10/09 01:29:59;;;;;;;14.33;3.43;;;10.70;99.90;;;;;;4347446;28;657891;-65
2022/10/09 01:32:48;;;;;;;8.27;2.93;;;10.70;99.90;;;;;;4347299;28;657791;-65
2022/10/09 01:35:35;;;;;;;10.05;3.03;;;10.70;99.90;;;;;;4347327;28;656522;-65
2022/10/09 01:38:22;;;;;;;12.13;3.67;;;10.60;99.90;;;;;;4375558;28;658633;-65
2022/10/09 01:41:10;;;;;;;8.87;3.20;;;10.60;99.90;;;;;;4362747;28;657667;-66
2022/10/09 01:43:59;;;;;;;8.43;3.43;;;10.60;99.90;;;;;;4371362;28;658248;-65
2022/10/09 01:46:46;;;;;;;8.53;3.17;;;10.60;99.90;;;;;;4342302;28;656555;-65
2022/10/09 01:49:39;;;;;;;8.53;3.27;;;10.60;99.90;;;;;;4373263;28;658365;-65
2022/10/09 01:52:47;;;;;;;14.50;3.07;;;10.50;99.90;;;;;;4348769;28;656518;-65
2022/10/09 01:55:38;;;;;;;7.90;3.27;;;10.50;99.90;;;;;;4345913;28;657711;-65
2022/10/09 01:58:28;;;;;;;11.10;2.80;;;10.40;99.90;;;;;;4348945;28;656594;-66
2022/10/09 02:01:17;;;;;;;9.23;3.03;;;10.40;99.90;;;;;;4350389;28;657488;-66
2022/10/09 02:04:06;;;;;;;9.57;3.13;;;10.40;99.90;;;;;;4367869;28;656604;-65
2022/10/09 02:06:53;;;;;;;10.53;3.03;;;10.40;99.90;;;;;;4349097;28;657047;-65
2022/10/09 02:09:40;;;;;;;7.57;3.20;;;10.30;99.90;;;;;;4350591;28;657555;-66
2022/10/09 02:12:27;;;;;;;8.20;3.17;;;10.30;99.90;;;;;;4369071;28;658438;-65
2022/10/09 02:15:15;;;;;;;11.63;3.40;;;10.20;99.90;;;;;;4366833;28;656557;-66
2022/10/09 02:18:07;;;;;;;15.70;3.53;;;10.10;99.90;;;;;;4368888;28;658904;-65
2022/10/09 02:20:56;;;;;;;7.80;3.10;;;10.20;99.90;;;;;;4366655;28;658437;-65
2022/10/09 02:23:44;;;;;;;10.73;3.90;;;10.10;99.90;;;;;;4370211;28;656836;-66
2022/10/09 02:26:31;;;;;;;12.37;3.60;;;10.10;99.90;;;;;;4352822;28;657713;-64
2022/10/09 02:29:18;;;;;;;8.87;3.70;;;10.10;99.90;;;;;;4374262;28;658050;-65
2022/10/09 02:32:05;;;;;;;10.60;3.60;;;10.00;99.90;;;;;;4348070;28;656721;-66
2022/10/09 02:34:54;;;;;;;9.57;3.97;;;10.00;99.90;;;;;;4376128;28;658526;-65
2022/10/09 02:37:41;;;;;;;7.83;3.90;;;9.90;99.90;;;;;;4354078;28;657032;-65
2022/10/09 02:40:28;;;;;;;8.30;3.57;;;9.90;99.90;;;;;;4380722;28;657037;-65
2022/10/09 02:43:15;;;;;;;10.03;3.93;;;10.00;99.90;;;;;;4351325;28;655617;-65
2022/10/09 02:46:02;;;;;;;10.90;3.70;;;9.90;99.90;;;;;;4372660;28;659014;-65
2022/10/09 02:48:50;;;;;;;12.87;3.27;;;9.80;99.90;;;;;;4366994;28;656622;-66
2022/10/09 02:51:39;;;;;;;14.97;4.03;;;9.80;99.90;;;;;;4375526;28;656550;-65
2022/10/09 02:54:26;;;;;;;9.47;3.77;;;9.70;99.90;;;;;;4355413;28;657494;-65
2022/10/09 02:57:13;;;;;;;10.60;4.10;;;9.60;99.90;;;;;;4368672;28;656822;-65
2022/10/09 03:00:00;;;;;;;8.00;3.77;;;9.50;99.90;;;;;;4353268;28;656526;-66
2022/10/09 03:02:47;;;;;;;7.60;3.63;;;9.40;99.90;;;;;;4378590;28;655653;-65
2022/10/09 03:05:34;;;;;;;9.57;3.90;;;9.40;99.90;;;;;;4376982;28;657040;-64
2022/10/09 03:08:23;;;;;;;11.70;3.70;;;9.40;99.90;;;;;;4356827;28;657545;-65
2022/10/09 03:11:10;;;;;;;11.30;3.50;;;9.30;99.90;;;;;;4349885;28;657136;-65
2022/10/09 03:13:57;;;;;;;14.67;3.70;;;9.30;99.90;;;;;;4372284;28;657755;-65
2022/10/09 03:16:45;;;;;;;10.93;4.23;;;9.20;99.90;;;;;;4371190;28;656335;-65
2022/10/09 03:19:32;;;;;;;11.20;3.63;;;9.30;99.90;;;;;;4376610;28;658408;-65
2022/10/09 03:22:19;;;;;;;13.03;3.97;;;9.20;99.90;;;;;;4372111;28;657263;-65
2022/10/09 03:25:09;;;;;;;10.20;3.70;;;9.20;99.90;;;;;;4355695;28;657149;-65
2022/10/09 03:27:56;;;;;;;13.93;3.60;;;9.20;99.90;;;;;;4351069;28;657971;-65
2022/10/09 03:30:43;;;;;;;10.57;3.90;;;9.20;99.90;;;;;;4376235;28;657596;-65
2022/10/09 03:33:30;;;;;;;13.73;4.07;;;9.20;99.90;;;;;;4353570;28;656513;-66
2022/10/09 03:36:17;;;;;;;10.23;4.00;;;9.30;99.90;;;;;;4370602;28;657761;-65
2022/10/09 03:39:04;;;;;;;10.23;3.47;;;9.40;83.50;;;;;;4372603;28;656943;-65
2022/10/09 03:41:53;;;;;;;7.30;3.30;;;9.40;50.20;;;;;;4353439;28;657322;-65
2022/10/09 03:44:40;;;;;;;12.67;3.70;;;9.40;1.00;;;;;;4352263;28;655500;-66
2022/10/09 03:47:27;;;;;;;10.32;3.17;;;9.40;1.00;;;;;;4377682;28;657280;-65
2022/10/09 03:50:14;;;;;;;10.23;3.70;;;9.40;1.00;;;;;;4372194;28;655417;-65
2022/10/09 03:53:02;;;;;;;7.63;3.53;;;9.40;1.00;;;;;;4355017;28;655585;-66
2022/10/09 03:55:50;;;;;;;8.93;3.47;;;9.40;1.00;;;;;;4367512;28;655088;-66
2022/10/09 03:58:39;;;;;;;11.27;4.00;;;9.40;99.90;;;;;;4376345;28;654384;-66
2022/10/09 04:01:26;;;;;;;9.45;3.42;;;9.40;99.90;;;;;;4346589;28;657332;-65
2022/10/09 04:04:13;;;;;;;8.43;3.17;;;9.40;33.90;;;;;;4373589;28;655923;-66
2022/10/09 04:07:00;;;;;;;11.27;3.80;;;9.40;1.00;;;;;;4350688;28;655669;-65
2022/10/09 04:09:47;;;;;;;7.63;3.13;;;9.30;1.00;;;;;;4372257;28;656809;-65
2022/10/09 04:12:34;;;;;;;7.40;3.37;;;9.40;99.90;;;;;;4374846;28;655413;-65
2022/10/09 04:15:23;;;;;;;15.20;4.80;;;9.30;99.90;;;;;;4353180;28;655717;-65
2022/10/09 04:18:10;;;;;;;9.65;3.70;;;9.30;99.90;;;;;;4351197;28;656994;-65
2022/10/09 04:20:57;;;;;;;11.77;4.03;;;9.30;1.00;;;;;;4375456;28;655643;-65
2022/10/09 04:23:44;;;;;;;9.33;4.33;;;9.30;99.90;;;;;;4371587;28;655966;-65
2022/10/09 04:26:32;;;;;;;10.20;5.53;;;9.30;1.00;;;;;;4348988;28;656979;-65
2022/10/09 04:29:19;;;;;;;13.47;5.60;;;9.40;99.90;;;;;;4370296;28;656090;-65
2022/10/09 04:32:07;;;;;;;15.23;4.60;;;9.30;1.00;;;;;;4350182;28;656607;-65
2022/10/09 04:34:54;;;;;;;12.40;5.13;;;9.30;99.90;;;;;;4367534;28;655354;-65
2022/10/09 04:37:42;;;;;;;10.67;4.83;;;9.30;99.90;;;;;;4354318;28;656542;-65
2022/10/09 04:40:29;;;;;;;7.17;3.67;;;9.20;1.00;;;;;;4367400;28;656443;-65
2022/10/09 04:43:16;;;;;;;8.77;4.03;;;9.20;1.00;;;;;;4351342;28;654334;-65
2022/10/09 04:46:07;;;;;;;14.23;5.10;;;9.10;99.90;;;;;;4371091;28;654859;-65
2022/10/09 04:48:55;;;;;;;11.17;5.03;;;9.10;99.90;;;;;;4349532;28;656396;-65
2022/10/09 04:51:43;;;;;;;11.33;5.53;;;9.10;99.90;;;;;;4346630;28;657946;-65
2022/10/09 04:54:30;;;;;;;17.90;5.40;;;9.00;99.90;;;;;;4349692;28;656488;-65
2022/10/09 04:57:18;;;;;;;11.50;5.57;;;9.00;1.00;;;;;;4370596;28;657887;-65
2022/10/09 05:00:06;;;;;;;17.43;6.37;;;9.10;99.90;;;;;;4364855;28;655962;-66
2022/10/09 05:02:53;;;;;;;14.82;6.80;;;9.00;99.90;;;;;;4368189;28;657354;-65
2022/10/09 05:05:42;;;;;;;13.90;6.53;;;8.90;1.00;;;;;;4354573;28;656515;-65
2022/10/09 05:08:30;;;;;;;15.07;6.20;;;8.90;1.00;;;;;;4369484;28;655165;-65
2022/10/09 05:11:18;;;;;;;13.57;7.03;;;9.00;1.00;;;;;;4341956;28;655565;-66
2022/10/09 05:14:05;;;;;;;16.77;7.00;;;9.00;1.00;;;;;;4362566;28;655574;-66
2022/10/09 05:16:52;;;;;;;14.40;7.07;;;9.00;1.00;;;;;;4370630;28;655638;-65
2022/10/09 05:19:39;;;;;;;14.87;6.53;;;9.00;1.00;;;;;;4371143;28;655284;-65
2022/10/09 05:22:28;;;;;;;12.73;6.60;;;9.00;1.00;;;;;;4355911;28;656595;-65
2022/10/09 05:25:15;;;;;;;12.05;6.50;;;9.00;1.00;;;;;;4351403;28;655600;-65
2022/10/09 05:28:03;;;;;;;20.00;7.53;;;9.00;1.00;;;;;;4372476;28;656139;-65
2022/10/09 05:30:50;;;;;;;12.07;7.30;;;9.10;1.00;;;;;;4349106;28;656055;-65
2022/10/09 05:33:37;;;;;;;16.30;8.57;;;8.90;99.90;;;;;;4372941;28;656297;-65
2022/10/09 05:36:25;;;;;;;18.10;8.00;;;8.90;56.00;;;;;;4365621;28;657692;-66
2022/10/09 05:39:14;;;;;;;14.87;8.60;;;8.90;99.90;;;;;;4371579;28;657346;-64
2022/10/09 05:42:01;;;;;;;18.83;8.57;;;8.80;1.00;;;;;;4349149;28;657003;-65
2022/10/09 05:44:48;;;;;;;16.87;8.70;;;8.90;1.00;;;;;;4372127;28;656541;-65
2022/10/09 05:47:35;;;;;;;23.40;10.27;;;8.90;99.90;;;;;;4349144;28;655753;-65
2022/10/09 05:50:22;;;;;;;26.17;10.57;;;8.90;99.90;;;;;;4374214;28;658097;-64
2022/10/09 05:53:10;;;;;;;14.70;7.87;;;8.80;1.00;;;;;;4364697;28;657591;-65
2022/10/09 05:56:08;;;;;;;16.43;7.47;;;8.90;99.90;;;;;;4375358;28;655275;-65
2022/10/09 05:58:56;;;;;;;14.40;7.77;;;8.90;1.00;;;;;;4322023;28;656555;-65
2022/10/09 06:01:45;;;;;;;15.83;7.17;;;8.80;99.90;;;;;;4360996;28;656512;-64
2022/10/09 06:04:32;;;;;;;18.42;6.50;;;8.80;99.90;;;;;;4350524;28;657726;-65
2022/10/09 06:07:19;;;;;;;18.40;6.27;;;8.80;99.90;;;;;;4369225;28;656463;-65
2022/10/09 06:10:07;;;;;;;9.90;6.17;;;8.80;1.00;;;;;;4353132;28;656568;-65
2022/10/09 06:12:56;;;;;;;13.43;5.97;;;8.80;99.90;;;;;;4376988;28;653834;-64
2022/10/09 06:15:51;;;;;;;10.90;5.40;;;8.80;1.00;;;;;;4344963;28;657600;-64
2022/10/09 06:18:39;;;;;;;10.93;6.07;;;8.80;99.90;;;;;;4353531;28;655349;-64
2022/10/09 06:21:26;;;;;;;12.43;5.80;;;8.90;12.10;;;;;;4353704;28;656639;-64
2022/10/09 06:24:18;;;;;;;11.33;5.33;;;9.00;1.00;;;;;;4372528;28;657618;-63
2022/10/09 06:27:05;;;;;;;13.13;5.30;;;9.20;1.00;;;;;;4331189;28;655844;-65
2022/10/09 06:29:54;;;;;;;14.27;6.07;;;9.20;99.90;;;;;;4374971;28;656198;-65
2022/10/09 06:32:42;;;;;;;11.47;6.67;;;9.10;99.90;;;;;;4355337;28;657345;-64
2022/10/09 06:35:29;;;;;;;16.30;6.53;;;8.90;99.90;;;;;;4370168;28;657827;-64
2022/10/09 06:38:16;;;;;;;14.73;5.90;;;9.00;99.90;;;;;;4348818;28;657263;-65
2022/10/09 06:41:04;;;;;;;14.60;6.20;;;9.10;99.90;;;;;;4369501;28;656419;-66
2022/10/09 06:43:52;;;;;;;15.85;7.13;;;9.10;99.90;;;;;;4351478;28;657128;-65
2022/10/09 06:46:41;;;;;;;11.53;5.93;;;9.30;99.90;;;;;;4369517;28;656307;-64
2022/10/09 06:49:28;;;;;;;12.80;5.70;;;9.50;1.00;;;;;;4350874;28;657580;-65
2022/10/09 06:52:15;;;;;;;12.55;5.50;;;9.30;99.90;;;;;;4350622;28;655873;-66
2022/10/09 06:55:02;;;;;;;16.77;5.67;;;9.50;99.90;;;;;;4375380;28;656199;-65
2022/10/09 06:57:50;;;;;;;11.80;5.13;;;9.70;14.10;;;;;;4370110;28;656718;-65
2022/10/09 07:00:37;;;;;;;12.67;4.60;;;9.80;1.00;;;;;;4376143;28;657702;-64
2022/10/09 07:03:26;;;;;;;15.10;4.57;;;9.80;1.00;;;;;;4373467;28;656262;-65
2022/10/09 07:06:14;;;;;;;16.97;5.63;;;9.80;1.00;;;;;;4348281;28;656385;-64
2022/10/09 07:09:02;;;;;;;21.33;6.60;;;9.20;1.00;;;;;;4354152;28;655690;-64
2022/10/09 07:11:49;;;;;;;17.07;7.97;;;9.50;1.00;;;;;;4365674;28;655181;-65
2022/10/09 07:14:36;;;;;;;11.47;6.23;;;9.90;1.00;;;;;;4349061;28;656638;-65
2022/10/09 07:17:23;;;;;;;10.80;6.10;;;10.10;1.00;;;;;;4370952;28;655701;-64
2022/10/09 07:20:12;;;;;;;14.30;6.70;;;10.30;1.00;;;;;;4350921;28;656233;-65
2022/10/09 07:22:59;;;;;;;11.73;6.07;;;10.40;1.00;;;;;;4371551;28;657264;-65
2022/10/09 07:25:46;;;;;;;10.77;5.30;;;10.40;1.00;;;;;;4346365;28;656985;-65
2022/10/09 07:28:33;;;;;;;13.40;4.50;;;10.60;1.00;;;;;;4365536;28;656737;-65
2022/10/09 07:31:21;;;;;;;9.23;3.90;;;10.80;1.00;;;;;;4353062;28;656643;-65
2022/10/09 07:34:08;;;;;;;10.63;4.37;;;10.80;1.00;;;;;;4375378;28;655774;-65
2022/10/09 07:36:57;;;;;;;10.43;4.07;;;10.50;1.00;;;;;;4344518;28;656788;-65
2022/10/09 07:39:44;;;;;;;11.57;3.67;;;10.60;1.00;;;;;;4367085;28;656464;-66
2022/10/09 07:42:32;;;;;;;9.40;3.53;;;10.70;1.00;;;;;;4331135;28;658101;-65
2022/10/09 07:45:19;;;;;;;10.50;4.03;;;10.90;1.00;;;;;;4369942;28;655362;-65
2022/10/09 07:48:06;;;;;;;9.23;3.30;;;10.90;1.00;;;;;;4348003;28;656468;-65
2022/10/09 07:50:54;;;;;;;8.97;3.47;;;11.50;99.90;;;;;;4367382;28;655696;-65
2022/10/09 07:53:43;;;;;;;9.00;3.37;;;11.70;99.90;;;;;;4348267;28;656672;-65
2022/10/09 07:56:31;;;;;;;13.23;3.50;;;11.80;99.90;;;;;;4349943;28;656617;-64
2022/10/09 07:59:18;;;;;;;4.75;2.65;;;11.50;99.90;;;;;;4365370;28;659307;-64
2022/10/09 08:02:05;;;;;;;10.43;3.70;;;11.00;99.90;;;;;;4349869;28;656787;-66
2022/10/09 08:04:52;;;;;;;10.83;3.80;;;10.40;99.90;;;;;;4369910;28;658886;-65
2022/10/09 08:07:40;;;;;;;9.33;3.20;;;10.80;99.90;;;;;;4361600;28;657520;-66
2022/10/09 08:10:30;;;;;;;7.17;3.00;;;11.60;99.90;;;;;;4375359;28;656748;-65
2022/10/09 08:13:17;;;;;;;6.20;3.10;;;11.70;99.90;;;;;;4344502;28;657955;-65
2022/10/09 08:16:06;;;;;;;6.37;2.40;;;12.60;99.90;;;;;;4362790;28;656729;-66
2022/10/09 08:18:54;;;;;;;8.73;2.87;;;12.60;99.90;;;;;;4366030;28;656512;-65
2022/10/09 08:21:42;;;;;;;7.30;3.17;;;11.90;99.90;;;;;;4341853;28;658263;-65
2022/10/09 08:24:29;;;;;;;11.17;3.00;;;11.50;99.90;;;;;;4369204;28;657079;-65
2022/10/09 08:27:17;;;;;;;7.23;3.30;;;11.10;99.90;;;;;;4346101;28;657548;-65
2022/10/09 08:30:06;;;;;;;10.27;4.00;;;11.00;99.90;;;;;;4363913;28;656663;-67
2022/10/09 08:32:53;;;;;;;12.20;4.17;;;11.30;99.90;;;;;;4365611;28;657674;-65
2022/10/09 08:35:41;;;;;;;9.43;3.93;;;12.00;99.90;;;;;;4312269;28;1142900;-66
2022/10/09 08:38:28;;;;;;;8.00;3.00;;;12.30;99.90;;;;;;4372852;28;659687;-65
2022/10/09 08:41:20;;;;;;;9.97;3.20;;;11.60;99.90;;;;;;4358448;28;657022;-65
2022/10/09 08:44:11;;;;;;;6.50;3.27;;;12.10;99.90;;;;;;4342680;28;657616;-65
2022/10/09 08:47:03;;;;;;;9.93;2.93;;;12.50;99.90;;;;;;4343131;28;657752;-65
2022/10/09 08:49:52;;;;;;;9.20;2.70;;;12.20;99.90;;;;;;4348915;28;656849;-65
2022/10/09 08:52:42;;;;;;;9.30;3.00;;;12.50;99.90;;;;;;4367928;28;657274;-65
2022/10/09 08:55:31;;;;;;;7.77;2.30;;;12.40;99.90;;;;;;4347891;28;657131;-65
2022/10/09 08:58:19;;;;;;;9.07;1.90;;;12.80;99.90;;;;;;4341390;28;658370;-66
2022/10/09 09:01:12;;;;;;;5.07;2.40;;;12.60;99.90;;;;;;4349928;28;656384;-66
2022/10/09 09:04:35;;;;;;;5.30;2.27;;;12.80;99.90;;;;;;4342812;28;657449;-65
2022/10/09 09:07:26;;;;;;;6.80;2.50;;;13.90;99.90;;;;;;4350740;28;656547;-66
2022/10/09 09:10:16;;;;;;;10.53;2.80;;;13.10;99.90;;;;;;4346799;28;657709;-65
2022/10/09 09:13:06;;;;;;;8.30;2.90;;;13.80;99.90;;;;;;4344978;28;658943;-66
2022/10/09 09:15:55;;;;;;;8.50;2.60;;;13.70;99.90;;;;;;4347719;28;657184;-65
2022/10/09 09:18:47;;;;;;;8.70;2.90;;;13.10;99.90;;;;;;4347615;28;657379;-64
2022/10/09 09:21:37;;;;;;;4.47;2.13;;;13.20;99.90;;;;;;4349812;28;656437;-65
2022/10/09 09:24:28;;;;;;;5.63;2.07;;;13.20;99.90;;;;;;4345746;28;657322;-64
2022/10/09 09:27:18;;;;;;;4.87;2.47;;;13.30;99.90;;;;;;4341817;28;656583;-67
2022/10/09 09:30:13;;;;;;;9.13;2.27;;;13.50;99.90;;;;;;4360030;28;656858;-65
2022/10/09 09:33:01;;;;;;;10.80;2.50;;;13.80;99.90;;;;;;4353438;28;656444;-65
2022/10/09 09:35:55;;;;;;;12.57;2.77;;;12.60;99.90;;;;;;4364468;28;657654;-64
2022/10/09 09:38:42;;;;;;;10.23;3.53;;;12.30;99.90;;;;;;4346170;28;658071;-65
2022/10/09 09:41:29;;;;;;;13.13;3.70;;;12.30;99.90;;;;;;4364024;28;657927;-65
2022/10/09 09:44:16;;;;;;;14.40;3.50;;;13.80;99.90;;;;;;4350310;28;657516;-65
2022/10/09 09:47:04;;;;;;;15.03;3.70;;;14.70;99.90;;;;;;4368800;28;658084;-66
2022/10/09 09:49:55;;;;;;;6.70;2.63;;;15.10;99.90;;;;;;4349814;28;657691;-65
2022/10/09 09:52:44;;;;;;;10.80;2.53;;;14.70;99.90;;;;;;4350759;28;656865;-65
2022/10/09 09:55:32;;;;;;;7.50;2.80;;;15.00;99.90;;;;;;4351771;28;657432;-65
2022/10/09 09:58:19;;;;;;;9.97;3.13;;;14.30;99.90;;;;;;4370250;28;656375;-65
2022/10/09 10:01:06;;;;;;;9.37;2.70;;;13.50;99.90;;;;;;4348273;28;656173;-65
2022/10/09 10:03:54;;;;;;;12.43;3.53;;;14.10;99.90;;;;;;4364485;28;656612;-64
2022/10/09 10:06:42;;;;;;;9.37;3.50;;;14.20;99.90;;;;;;4354609;28;658698;-65
2022/10/09 10:09:31;;;;;;;4.60;3.13;;;14.10;99.90;;;;;;4366266;28;658134;-65
2022/10/09 10:12:18;;;;;;;11.17;4.10;;;15.20;99.90;;;;;;4346120;28;656264;-65
2022/10/09 10:15:06;;;;;;;7.43;3.47;;;16.10;99.90;;;;;;4347488;28;657702;-66
2022/10/09 10:18:01;;;;;;;10.43;4.00;;;16.50;99.90;;;;;;4375540;28;656749;-65
2022/10/09 10:20:49;;;;;;;9.83;3.73;;;16.30;99.90;;;;;;4351786;28;658442;-66
2022/10/09 10:23:38;;;;;;;17.77;4.03;;;15.50;99.90;;;;;;4351875;28;656280;-65
2022/10/09 10:26:28;;;;;;;9.67;3.50;;;15.40;99.90;;;;;;4355909;28;658033;-67
2022/10/09 10:29:16;;;;;;;13.03;3.90;;;14.20;99.90;;;;;;4353026;28;656571;-67
2022/10/09 10:32:07;;;;;;;14.93;3.70;;;13.90;99.90;;;;;;4373078;28;657598;-66
2022/10/09 10:34:57;;;;;;;10.10;3.47;;;13.40;99.90;;;;;;4344871;28;657513;-66
2022/10/09 10:37:47;;;;;;;7.83;3.70;;;13.60;99.90;;;;;;4368762;28;657323;-64
2022/10/09 10:40:36;;;;;;;17.07;4.33;;;13.60;99.90;;;;;;4353972;28;656589;-64
2022/10/09 10:43:30;;;;;;;10.77;4.27;;;13.90;99.90;;;;;;4351936;28;658443;-66
2022/10/09 10:46:21;;;;;;;23.57;5.13;;;13.90;99.90;;;;;;4352215;28;658174;-65
2022/10/09 10:49:09;;;;;;;14.43;3.80;;;14.10;99.90;;;;;;4349976;28;658636;-64
2022/10/09 10:52:03;;;;;;;6.27;3.67;;;14.00;99.90;;;;;;4354961;28;658444;-65
2022/10/09 10:54:52;;;;;;;7.77;4.20;;;13.60;99.90;;;;;;4327877;28;656473;-66
2022/10/09 10:57:42;;;;;;;12.07;4.43;;;13.70;99.90;;;;;;4369162;28;656757;-65
2022/10/09 11:00:30;;;;;;;11.50;3.73;;;14.30;99.90;;;;;;4351046;28;657695;-65
2022/10/09 11:03:29;;;;;;;15.67;4.30;;;15.20;99.90;;;;;;4353537;28;658654;-65
2022/10/09 11:06:19;;;;;;;12.47;4.80;;;15.00;99.90;;;;;;4353869;28;657564;-65
2022/10/09 11:09:09;;;;;;;16.47;4.77;;;14.50;99.90;;;;;;4355206;28;657618;-65
2022/10/09 11:11:59;;;;;;;14.27;5.57;;;14.30;99.90;;;;;;4353495;28;658551;-65
2022/10/09 11:14:50;;;;;;;14.47;4.87;;;13.80;99.90;;;;;;4350975;28;657378;-65
2022/10/09 11:17:41;;;;;;;14.80;4.63;;;14.50;99.90;;;;;;4352796;28;659178;-65
2022/10/09 11:20:48;;;;;;;14.50;5.07;;;15.40;99.90;;;;;;4352880;28;657845;-65
2022/10/09 11:23:43;;;;;;;12.90;5.17;;;16.40;99.90;;;;;;4332616;28;657676;-66
2022/10/09 11:26:33;;;;;;;15.73;4.30;;;15.50;99.90;;;;;;4328128;28;658008;-65
2022/10/09 11:29:21;;;;;;;10.30;4.27;;;15.20;99.90;;;;;;4355840;28;657701;-67
2022/10/09 11:32:12;;;;;;;18.37;4.60;;;15.80;99.90;;;;;;4369148;28;657894;-64
2022/10/09 11:35:03;;;;;;;17.80;4.60;;;16.10;99.90;;;;;;4349452;28;657902;-66
2022/10/09 11:37:59;;;;;;;14.37;3.90;;;16.30;99.90;;;;;;4332874;28;657410;-66
2022/10/09 11:40:46;;;;;;;8.37;2.80;;;17.10;99.90;;;;;;4354627;28;657874;-66
2022/10/09 11:43:43;;;;;;;8.20;2.70;;;17.60;99.90;;;;;;4379023;28;657170;-66
2022/10/09 11:46:37;;;;;;;10.93;2.63;;;17.50;99.90;;;;;;4336281;28;657371;-67
2022/10/09 11:49:25;;;;;;;8.40;2.70;;;17.30;99.90;;;;;;4347875;28;658476;-65
2022/10/09 11:52:18;;;;;;;8.43;3.10;;;17.10;99.90;;;;;;4344947;28;657200;-65
2022/10/09 11:55:17;;;;;;;5.97;2.53;;;15.70;99.90;;;;;;4318554;28;656925;-65
2022/10/09 11:58:13;;;;;;;6.97;2.83;;;16.00;99.90;;;;;;4350794;28;657294;-65
2022/10/09 12:01:11;;;;;;;7.60;2.80;;;16.50;99.90;;;;;;4331842;28;657019;-65
2022/10/09 12:04:03;;;;;;;15.80;3.13;;;17.10;99.90;;;;;;4350624;28;657327;-65
2022/10/09 12:06:51;;;;;;;8.40;2.50;;;17.50;99.90;;;;;;4345728;28;657401;-66
2022/10/09 12:09:41;;;;;;;12.23;2.80;;;17.50;99.90;;;;;;4369330;28;656946;-66
2022/10/09 12:12:28;;;;;;;5.50;2.00;;;17.40;99.90;;;;;;4342389;28;658596;-65
2022/10/09 12:15:24;;;;;;;7.07;2.17;;;16.70;99.90;;;;;;4344405;28;657040;-66
2022/10/09 12:18:16;;;;;;;5.93;2.10;;;16.70;99.90;;;;;;4352266;28;657182;-65
2022/10/09 12:21:04;;;;;;;9.17;3.00;;;16.60;99.90;;;;;;4344292;28;656693;-65
2022/10/09 12:23:51;;;;;;;9.13;3.60;;;16.00;99.90;;;;;;4348126;28;656594;-65
2022/10/09 12:26:40;;;;;;;6.90;2.20;;;16.00;99.90;;;;;;4367363;28;656505;-65
2022/10/09 12:29:28;;;;;;;5.60;2.57;;;16.00;99.90;;;;;;4349136;28;658623;-65
2022/10/09 12:32:17;;;;;;;5.13;3.20;;;16.30;99.90;;;;;;4348981;28;656832;-65
2022/10/09 12:35:11;;;;;;;5.80;1.70;;;16.90;99.90;;;;;;4367648;28;656457;-64
2022/10/09 12:37:58;;;;;;;5.00;2.10;;;16.90;99.90;;;;;;4351080;28;656839;-64
2022/10/09 12:40:46;;;;;;;4.67;1.90;;;16.60;99.90;;;;;;4356340;28;657378;-66
2022/10/09 12:43:35;;;;;;;4.33;1.40;;;16.60;99.90;;;;;;4371850;28;658598;-65
2022/10/09 12:46:26;;;;;;;4.23;1.00;;;17.00;99.90;;;;;;4350663;28;658664;-65
2022/10/09 12:49:18;;;;;;;3.53;1.10;;;18.00;99.90;;;;;;4344987;28;657677;-66
2022/10/09 12:52:11;;;;;;;3.63;1.23;;;18.40;99.90;;;;;;4329365;28;656599;-66
2022/10/09 12:54:59;;;;;;;2.20;1.00;;;19.20;99.90;;;;;;4348056;28;657054;-66
2022/10/09 12:57:46;;;;;;;3.37;1.43;;;20.00;99.90;;;;;;4349781;28;656238;-66
2022/10/09 13:00:34;;;;;;;3.67;1.40;;;20.40;99.90;;;;;;4371049;28;656568;-66
2022/10/09 13:03:25;;;;;;;2.67;1.40;;;19.60;99.90;;;;;;4352219;28;656553;-66
2022/10/09 13:06:14;;;;;;;7.00;2.00;;;20.00;99.90;;;;;;4350764;28;657744;-66
2022/10/09 13:09:02;;;;;;;2.77;1.60;;;20.60;99.90;;;;;;4354577;28;657138;-66
2022/10/09 13:11:53;;;;;;;8.03;1.97;;;21.50;99.90;;;;;;4370867;28;656813;-68
2022/10/09 13:14:42;;;;;;;3.73;1.40;;;22.40;99.90;;;;;;4353058;28;656797;-66
2022/10/09 13:17:32;;;;;;;5.87;1.47;;;23.00;99.90;;;;;;4371618;28;656294;-66
2022/10/09 13:20:27;;;;;;;5.43;1.50;;;21.10;99.90;;;;;;4344158;28;657004;-66
2022/10/09 13:23:27;;;;;;;4.10;1.57;;;19.60;99.90;;;;;;4350915;28;656537;-66
2022/10/09 13:26:19;;;;;;;4.60;1.40;;;17.70;99.90;;;;;;4350026;28;657546;-66
2022/10/09 13:29:07;;;;;;;5.73;1.70;;;18.20;99.90;;;;;;4357472;28;656557;-66
2022/10/09 13:31:54;;;;;;;4.30;1.93;;;19.60;99.90;;;;;;4370368;28;656559;-66
2022/10/09 13:34:42;;;;;;;3.83;2.03;;;20.90;99.90;;;;;;4351639;28;656504;-66
2022/10/09 13:37:30;;;;;;;4.00;1.80;;;21.70;99.90;;;;;;4359849;28;656473;-66
2022/10/09 13:40:20;;;;;;;5.60;1.73;;;22.60;99.90;;;;;;4375136;28;657603;-66
2022/10/09 13:43:09;;;;;;;8.33;1.60;;;22.60;99.90;;;;;;4348422;28;657000;-67
2022/10/09 13:45:56;;;;;;;3.50;1.20;;;23.60;99.90;;;;;;4347861;28;656967;-66
2022/10/09 13:48:43;;;;;;;3.83;1.30;;;24.30;99.90;;;;;;4369497;28;657688;-66
2022/10/09 13:51:32;;;;;;;2.00;1.07;;;24.50;99.90;;;;;;4355788;28;656585;-66
2022/10/09 13:54:19;;;;;;;4.27;1.40;;;25.00;99.90;;;;;;4372811;28;656664;-66
2022/10/09 13:57:06;;;;;;;3.83;1.75;;;24.20;99.90;;;;;;4347226;28;656767;-65
2022/10/09 13:59:53;;;;;;;4.67;1.63;;;24.20;99.90;;;;;;4373357;28;656502;-66
2022/10/09 14:02:40;;;;;;;4.77;1.77;;;22.60;99.90;;;;;;4346814;28;656849;-66
2022/10/09 14:05:27;;;;;;;6.83;1.63;;;21.70;99.90;;;;;;4380188;28;658134;-65
2022/10/09 14:08:16;;;;;;;3.37;1.47;;;20.50;99.90;;;;;;4376419;28;657432;-66
2022/10/09 14:11:03;;;;;;;5.87;1.60;;;22.20;99.90;;;;;;4351277;28;658000;-66
2022/10/09 14:13:50;;;;;;;4.20;1.60;;;22.50;99.90;;;;;;4345902;28;656758;-67
2022/10/09 14:16:37;;;;;;;4.20;1.50;;;20.80;99.90;;;;;;4366572;28;657497;-66
2022/10/09 14:19:26;;;;;;;4.30;1.63;;;19.60;99.90;;;;;;4371932;28;656469;-66
2022/10/09 14:22:13;;;;;;;5.70;1.50;;;21.90;99.90;;;;;;4346569;28;657605;-66
2022/10/09 14:25:02;;;;;;;6.67;1.80;;;25.00;99.90;;;;;;4349128;28;656615;-67
2022/10/09 14:27:49;;;;;;;4.10;1.60;;;24.90;99.90;;;;;;4370000;28;656799;-67